Terminal Aerodrome Forecast
Issued by NWS

Home | Current Version | Previous Version | Text Only | Print | Product List | Glossary Off
Versions: 1 2 3 4 5 6 7 8 9 10 11 12 13 14 15 16 17 18 19

000
FTUS43 KICT 291720
TAFHUT
TAF
KHUT 291720Z 2918/3018 07016G24KT 6SM -SHRA VCTS OVC008CB
      TEMPO 2918/2922 3SM TSRA SCT008 OVC012CB
     FM292200 06016G22KT 6SM -SHRA VCTS OVC008CB
      TEMPO 2922/3002 2SM +TSRA SCT008 OVC015CB
     FM300200 10014KT 3SM BR VCTS OVC008CB
     FM300800 30010KT 3SM BR OVC008
     FM301600 27014KT P6SM SCT035=

USA.gov is the U.S. government's official web portal to all federal, state and local government web resources and services.